Time;durP1;ratioP1;P1;durP2;ratioP2;P2;SDS_P1;SDS_P2;PMS_P1;PMS_P2;Temp;Humidity;BMP_temperature;BMP_pressure;BME280_temperature;BME280_humidity;BME280_pressure;Samples;Min_cycle;Max_cycle;Signal;HPM_P1;HPM_P2
2022/02/03 00:02:12;;;;;;;21.83;3.35;;;2.20;95.10;;;;;;4992400;28;20030;-71
2022/02/03 00:04:48;;;;;;;;;;;2.20;94.90;;;;;;4998222;28;20015;-71
2022/02/03 00:07:19;;;;;;;19.42;3.25;;;2.20;94.70;;;;;;4997105;28;19909;-71
2022/02/03 00:24:16;;;;;;;30.35;3.95;;;2.40;94.40;;;;;;4988510;28;20536;-72
2022/02/03 00:26:16;;;;;;;21.05;3.22;;;2.40;94.20;;;;;;4987774;28;20096;-71
2022/02/03 00:28:45;;;;;;;13.63;3.70;;;2.40;94.10;;;;;;4994864;28;20045;-71
2022/02/03 00:31:29;;;;;;;18.33;3.25;;;2.40;94.20;;;;;;4993131;28;20033;-71
2022/02/03 00:34:04;;;;;;;26.00;3.83;;;2.40;94.20;;;;;;4994714;28;20022;-71
2022/02/03 00:36:52;;;;;;;19.88;3.22;;;2.50;94.20;;;;;;4992433;28;20033;-71
2022/02/03 00:48:20;;;;;;;19.58;3.80;;;2.70;93.80;;;;;;4991589;28;20033;-71
2022/02/03 00:50:28;;;;;;;19.50;3.20;;;2.60;93.60;;;;;;4987083;28;20049;-72
2022/02/03 00:52:55;;;;;;;16.65;2.90;;;2.60;93.60;;;;;;4992602;28;20406;-71
2022/02/03 00:55:22;;;;;;;18.00;3.42;;;2.60;93.50;;;;;;4991865;28;20034;-71
2022/02/03 00:57:53;;;;;;;18.77;3.53;;;2.60;93.60;;;;;;5017938;28;20065;-71
2022/02/03 01:00:20;;;;;;;23.10;3.33;;;2.60;93.50;;;;;;4987063;28;20031;-71
2022/02/03 01:03:07;;;;;;;18.40;3.35;;;2.60;93.60;;;;;;4984912;28;20561;-71
2022/02/03 01:05:35;;;;;;;17.98;3.08;;;2.60;93.60;;;;;;4983819;28;20019;-71
2022/02/03 01:08:04;;;;;;;16.05;3.25;;;2.60;93.70;;;;;;4981841;28;20034;-71
2022/02/03 01:10:37;;;;;;;21.65;3.10;;;2.50;93.70;;;;;;5000613;28;20038;-71
2022/02/03 01:13:18;;;;;;;14.90;3.10;;;2.50;93.70;;;;;;5013211;28;20030;-71
2022/02/03 01:15:57;;;;;;;17.15;4.05;;;2.50;93.70;;;;;;4979652;28;20042;-72
2022/02/03 01:21:41;;;;;;;18.65;4.07;;;2.50;93.70;;;;;;4992242;28;20120;-71
2022/02/03 01:43:38;;;;;;;15.93;3.10;;;2.60;93.70;;;;;;5003452;28;20453;-71
2022/02/03 01:46:14;;;;;;;20.05;3.30;;;2.60;93.70;;;;;;4999440;28;20093;-71
2022/02/03 01:49:03;;;;;;;18.88;3.70;;;2.60;93.80;;;;;;4987958;28;20346;-71
2022/02/03 01:51:39;;;;;;;22.60;4.15;;;2.70;93.80;;;;;;4995022;28;20030;-71
2022/02/03 01:54:06;;;;;;;12.77;3.08;;;2.70;93.70;;;;;;4992193;28;20057;-71
2022/02/03 01:57:17;;;;;;;21.00;3.80;;;2.70;93.60;;;;;;4994784;28;20524;-71
2022/02/03 01:59:57;;;;;;;18.98;3.72;;;2.70;93.60;;;;;;4984901;28;20035;-71
2022/02/03 02:02:30;;;;;;;16.45;3.63;;;2.80;93.50;;;;;;5000393;28;20041;-71
2022/02/03 02:05:20;;;;;;;13.88;3.20;;;2.90;93.40;;;;;;4991254;28;20377;-72
2022/02/03 02:08:07;;;;;;;12.98;3.20;;;2.90;93.30;;;;;;4990858;28;20026;-71
2022/02/03 02:11:18;;;;;;;16.45;2.97;;;2.80;93.30;;;;;;4995736;28;20173;-72
2022/02/03 02:36:57;;;;;;;19.15;4.25;;;2.90;93.20;;;;;;5009515;28;20085;-71
2022/02/03 02:39:30;;;;;;;16.10;3.60;;;3.00;92.90;;;;;;4988515;28;20369;-71
2022/02/03 02:42:32;;;;;;;18.08;4.20;;;3.00;92.80;;;;;;4994787;28;20050;-71
2022/02/03 02:45:07;;;;;;;19.08;4.03;;;3.00;92.80;;;;;;4997047;28;20029;-71
2022/02/03 02:47:44;;;;;;;21.85;4.15;;;3.10;92.80;;;;;;4993763;28;20026;-71
2022/02/03 02:50:48;;;;;;;14.95;3.95;;;3.10;92.80;;;;;;4991917;28;20085;-71
2022/02/03 02:53:31;;;;;;;18.00;3.33;;;3.20;92.80;;;;;;4993192;28;20026;-71
2022/02/03 03:28:54;;;;;;;19.25;4.45;;;3.30;93.00;;;;;;4992716;28;20054;-71
2022/02/03 03:29:48;;;;;;;18.98;4.90;;;3.30;94.50;;;;;;4993185;28;20102;-71
2022/02/03 03:32:33;;;;;;;23.75;4.72;;;3.40;94.60;;;;;;4988982;28;20111;-71
2022/02/03 03:37:49;;;;;;;20.00;5.10;;;3.40;94.90;;;;;;4991631;28;20029;-71
2022/02/03 03:40:16;;;;;;;28.42;5.03;;;3.40;95.00;;;;;;4991478;28;20113;-71
2022/02/03 03:42:54;;;;;;;17.30;4.90;;;3.40;95.20;;;;;;4991884;28;20101;-71
2022/02/03 03:45:21;;;;;;;25.55;4.82;;;3.40;95.30;;;;;;5002770;28;20057;-71
2022/02/03 03:47:47;;;;;;;25.48;5.75;;;3.50;95.40;;;;;;4991403;28;20030;-71
2022/02/03 03:50:16;;;;;;;19.85;5.45;;;3.40;95.40;;;;;;4991842;28;20112;-72
2022/02/03 03:52:56;;;;;;;29.50;5.78;;;3.50;95.50;;;;;;4990740;28;20050;-71
2022/02/03 05:03:56;;;;;;;26.97;10.67;;;4.10;97.20;;;;;;4988475;28;20373;-71
2022/02/03 05:13:00;;;;;;;19.88;11.18;;;4.10;97.30;;;;;;4981234;28;20042;-72
2022/02/03 05:16:11;;;;;;;22.65;11.48;;;4.10;97.40;;;;;;4977808;28;20045;-71
2022/02/03 05:19:33;;;;;;;26.55;10.65;;;4.20;97.40;;;;;;4982234;28;20025;-70
2022/02/03 05:23:03;;;;;;;23.80;10.40;;;4.30;97.50;;;;;;4991123;28;20034;-73
2022/02/03 05:26:13;;;;;;;20.55;9.88;;;4.30;97.50;;;;;;4990981;28;20030;-72
2022/02/03 05:32:12;;;;;;;20.42;9.65;;;4.30;97.50;;;;;;5002697;28;19967;-74
2022/02/03 05:44:57;;;;;;;17.70;10.02;;;4.40;97.60;;;;;;4988557;28;20061;-74
2022/02/03 05:50:24;;;;;;;22.50;10.50;;;4.40;97.60;;;;;;4993740;28;20385;-75
2022/02/03 05:52:42;;;;;;;19.95;11.77;;;4.40;97.60;;;;;;4997202;28;20479;-74
2022/02/03 06:00:42;;;;;;;22.92;12.05;;;4.50;97.60;;;;;;4994813;28;20058;-74
2022/02/03 06:08:32;;;;;;;24.77;13.30;;;4.60;97.80;;;;;;4997988;28;20033;-74
2022/02/03 06:14:05;;;;;;;33.83;14.18;;;4.60;97.80;;;;;;4992535;28;20077;-75
2022/02/03 06:21:29;;;;;;;31.65;15.48;;;4.70;97.80;;;;;;4993008;28;20019;-75
2022/02/03 06:27:29;;;;;;;30.63;14.55;;;4.70;97.90;;;;;;4993553;28;20042;-75
2022/02/03 06:29:28;;;;;;;31.80;14.30;;;4.80;97.90;;;;;;4981078;28;20435;-75
2022/02/03 06:31:54;;;;;;;32.55;15.27;;;4.70;97.90;;;;;;4981111;28;20022;-75
2022/02/03 06:34:21;;;;;;;33.28;15.15;;;4.70;97.90;;;;;;4983252;28;20034;-75
2022/02/03 06:36:50;;;;;;;41.80;14.90;;;4.80;97.90;;;;;;4991033;28;20022;-75
2022/02/03 06:39:18;;;;;;;34.65;13.93;;;4.70;97.90;;;;;;4988628;28;20027;-74
2022/02/03 06:41:45;;;;;;;37.13;14.45;;;4.70;97.90;;;;;;4995617;28;20137;-75
2022/02/03 06:44:13;;;;;;;30.20;13.60;;;4.80;98.00;;;;;;4983123;28;20458;-74
2022/02/03 06:46:43;;;;;;;33.42;14.60;;;4.80;98.00;;;;;;4985586;28;20042;-74
2022/02/03 06:49:28;;;;;;;36.47;14.80;;;4.90;98.00;;;;;;4985507;28;20374;-74
2022/02/03 06:52:01;;;;;;;39.00;15.98;;;4.90;98.00;;;;;;4991687;28;20023;-74
2022/02/03 06:57:18;;;;;;;53.58;16.67;;;4.90;98.00;;;;;;4969490;28;20474;-74
2022/02/03 07:00:06;;;;;;;57.95;16.88;;;4.90;98.10;;;;;;4989272;28;20085;-74
2022/02/03 07:02:38;;;;;;;58.90;17.65;;;5.00;98.10;;;;;;4982252;28;20027;-74
2022/02/03 07:05:04;;;;;;;60.72;17.75;;;5.00;98.10;;;;;;4992108;28;20030;-74
2022/02/03 07:07:29;;;;;;;67.43;20.27;;;5.00;98.10;;;;;;4982996;28;20034;-74
2022/02/03 07:09:55;;;;;;;57.90;18.48;;;5.00;98.10;;;;;;4991067;28;20471;-74
2022/02/03 07:12:21;;;;;;;73.45;19.33;;;5.10;98.10;;;;;;4992698;28;20057;-74
2022/02/03 07:14:48;;;;;;;84.38;19.58;;;5.10;98.10;;;;;;4991249;28;20118;-74
2022/02/03 07:17:13;;;;;;;72.45;20.02;;;5.10;98.10;;;;;;4992579;28;20025;-74
2022/02/03 07:19:46;;;;;;;75.45;20.40;;;5.10;98.10;;;;;;4986667;28;20034;-74
2022/02/03 07:22:11;;;;;;;88.00;21.15;;;5.20;98.20;;;;;;4990649;28;20113;-74
2022/02/03 07:24:37;;;;;;;108.38;21.92;;;5.30;98.20;;;;;;4992629;28;20101;-74
2022/02/03 07:27:02;;;;;;;101.70;22.08;;;5.30;98.20;;;;;;4992144;28;20061;-74
2022/02/03 07:29:28;;;;;;;112.97;23.10;;;5.30;98.20;;;;;;4980777;28;20045;-74
2022/02/03 07:31:53;;;;;;;120.47;22.92;;;5.30;98.20;;;;;;4992780;28;20348;-74
2022/02/03 07:34:20;;;;;;;159.02;26.15;;;5.40;98.20;;;;;;4992277;28;20105;-74
2022/02/03 07:36:46;;;;;;;112.43;23.85;;;5.50;98.30;;;;;;4999468;28;20032;-74
2022/02/03 07:39:12;;;;;;;161.85;25.92;;;5.50;98.30;;;;;;4981445;28;20086;-74
2022/02/03 07:41:39;;;;;;;122.20;25.20;;;5.50;98.30;;;;;;4992788;28;20022;-74
2022/02/03 07:44:05;;;;;;;112.55;23.65;;;5.60;98.30;;;;;;4990955;28;20029;-74
2022/02/03 07:46:31;;;;;;;108.57;23.02;;;5.60;98.30;;;;;;4992982;28;20057;-74
2022/02/03 07:48:58;;;;;;;124.90;24.17;;;5.60;98.30;;;;;;4992205;28;20030;-75
2022/02/03 07:51:24;;;;;;;106.40;24.45;;;5.60;98.40;;;;;;4989738;28;20042;-74
2022/02/03 07:53:49;;;;;;;118.03;25.73;;;5.60;98.40;;;;;;4988723;28;20455;-74
2022/02/03 07:56:15;;;;;;;96.15;23.05;;;5.70;98.40;;;;;;4991501;28;20030;-74
2022/02/03 07:58:41;;;;;;;98.68;24.33;;;5.70;98.40;;;;;;4991859;28;20438;-74
2022/02/03 08:01:06;;;;;;;87.55;23.63;;;5.80;98.40;;;;;;4992484;28;20082;-74
2022/02/03 08:03:32;;;;;;;91.95;23.50;;;5.80;98.40;;;;;;4989455;28;20033;-74
2022/02/03 08:06:05;;;;;;;90.22;23.73;;;5.80;98.40;;;;;;4990457;28;20022;-74
2022/02/03 08:08:37;;;;;;;88.40;23.40;;;5.80;98.40;;;;;;4990867;28;20370;-74
2022/02/03 08:11:07;;;;;;;;;;;5.80;98.40;;;;;;4991283;28;20440;-75
2022/02/03 08:16:42;;;;;;;79.45;22.75;;;6.00;98.50;;;;;;4983783;28;20054;-75
2022/02/03 08:19:15;;;;;;;72.95;22.65;;;6.00;98.50;;;;;;4983513;28;20367;-74
2022/02/03 08:21:45;;;;;;;75.95;23.35;;;6.10;98.50;;;;;;4986861;28;20030;-74
2022/02/03 08:27:07;;;;;;;81.15;24.77;;;6.20;98.60;;;;;;4990510;28;20382;-74
2022/02/03 08:32:19;;;;;;;81.50;24.33;;;6.40;98.60;;;;;;4983480;28;20060;-74
2022/02/03 08:34:57;;;;;;;83.03;23.58;;;6.40;98.60;;;;;;4990251;28;20018;-74
2022/02/03 08:37:31;;;;;;;72.28;20.90;;;6.40;98.60;;;;;;4999584;28;20112;-74
2022/02/03 08:40:09;;;;;;;69.95;21.50;;;6.50;98.60;;;;;;4996585;28;20033;-74
2022/02/03 08:42:35;;;;;;;71.22;21.52;;;6.60;98.60;;;;;;4989144;28;20038;-74
2022/02/03 08:45:00;;;;;;;67.65;21.00;;;6.60;98.60;;;;;;4990979;28;20416;-74
2022/02/03 08:47:26;;;;;;;65.65;20.95;;;6.70;98.70;;;;;;4991336;28;20038;-74
2022/02/03 08:49:52;;;;;;;70.65;21.23;;;6.80;98.70;;;;;;4991027;28;20018;-74
2022/02/03 08:52:21;;;;;;;70.10;20.40;;;6.80;98.60;;;;;;4989419;28;20026;-74
2022/02/03 08:54:59;;;;;;;67.05;21.35;;;6.80;98.70;;;;;;4990704;28;20019;-74
2022/02/03 08:57:38;;;;;;;56.40;19.20;;;6.90;98.70;;;;;;4989598;28;20029;-74
2022/02/03 09:00:33;;;;;;;62.70;20.10;;;7.00;98.70;;;;;;4990684;28;20095;-74
2022/02/03 09:55:05;;;;;;;68.40;24.08;;;7.30;98.50;;;;;;4990524;28;20057;-74
2022/02/03 10:00:36;;;;;;;90.80;30.23;;;7.40;98.60;;;;;;4990018;28;20085;-74
2022/02/03 10:03:11;;;;;;;87.30;29.73;;;7.40;98.50;;;;;;4990381;28;20050;-74
2022/02/03 10:05:41;;;;;;;93.72;30.23;;;7.40;98.50;;;;;;4983914;28;20031;-74
2022/02/03 10:08:13;;;;;;;102.53;33.83;;;7.40;98.50;;;;;;4987685;28;20047;-74
2022/02/03 10:10:39;;;;;;;101.03;33.58;;;7.50;98.50;;;;;;4989731;28;20026;-74
2022/02/03 10:13:25;;;;;;;108.57;34.90;;;7.40;98.50;;;;;;5004040;28;20455;-74
2022/02/03 10:16:04;;;;;;;120.85;38.92;;;7.50;98.50;;;;;;4989987;28;20156;-74
2022/02/03 10:18:30;;;;;;;118.45;36.67;;;7.50;98.50;;;;;;4989486;28;20022;-74
2022/02/03 10:20:57;;;;;;;122.18;39.20;;;7.50;98.50;;;;;;4987217;28;20027;-74
2022/02/03 10:23:25;;;;;;;114.97;35.08;;;7.50;98.50;;;;;;4989465;28;20023;-74
2022/02/03 10:25:55;;;;;;;121.15;38.47;;;7.50;98.50;;;;;;4990852;28;20026;-74
2022/02/03 10:28:21;;;;;;;109.77;34.63;;;7.50;98.50;;;;;;4998804;28;20041;-74
2022/02/03 10:30:51;;;;;;;113.32;36.08;;;7.50;98.50;;;;;;4994674;28;20268;-74
2022/02/03 10:33:16;;;;;;;116.05;35.40;;;7.50;98.50;;;;;;4993521;28;20033;-74
2022/02/03 10:35:58;;;;;;;108.90;38.75;;;7.50;98.50;;;;;;4981875;28;20030;-75
2022/02/03 10:38:58;;;;;;;99.40;35.60;;;7.50;98.50;;;;;;4982315;28;20022;-77
2022/02/03 10:42:01;;;;;;;100.80;34.38;;;7.50;98.50;;;;;;4988433;28;20038;-76
2022/02/03 10:45:05;;;;;;;85.22;33.20;;;7.50;98.50;;;;;;4989986;28;20026;-76
2022/02/03 10:50:20;;;;;;;88.57;34.33;;;7.50;98.40;;;;;;4979735;28;20034;-76
2022/02/03 11:08:30;;;;;;;76.38;30.20;;;7.50;98.30;;;;;;4991325;28;20461;-76
2022/02/03 11:11:00;;;;;;;79.47;31.38;;;7.50;98.30;;;;;;4982655;28;20435;-76
2022/02/03 11:13:32;;;;;;;76.00;30.08;;;7.40;98.30;;;;;;4991756;28;20567;-76
2022/02/03 11:16:04;;;;;;;63.53;25.48;;;7.40;98.30;;;;;;4992495;28;20105;-75
2022/02/03 11:18:32;;;;;;;49.60;23.15;;;7.40;98.20;;;;;;4990539;28;20031;-76
2022/02/03 11:21:00;;;;;;;58.83;26.15;;;7.40;98.10;;;;;;4991305;28;20041;-75
2022/02/03 11:34:30;;;;;;;51.72;24.30;;;7.40;98.00;;;;;;4966387;28;20419;-76
2022/02/03 11:39:56;;;;;;;45.55;22.85;;;7.30;97.80;;;;;;4979194;28;20054;-76
2022/02/03 12:05:42;;;;;;;45.88;21.48;;;7.30;97.10;;;;;;4988609;28;20486;-76
2022/02/03 12:11:20;;;;;;;33.05;18.15;;;7.20;97.10;;;;;;4982995;28;20478;-76
2022/02/03 12:19:16;;;;;;;26.90;13.23;;;7.10;96.90;;;;;;4987728;28;20180;-76
2022/02/03 12:24:20;;;;;;;27.52;13.43;;;7.10;96.70;;;;;;4990458;28;20036;-76
2022/02/03 12:27:13;;;;;;;27.20;13.43;;;7.00;96.60;;;;;;4986575;28;20103;-76
2022/02/03 12:29:43;;;;;;;28.45;14.35;;;7.00;96.60;;;;;;4989502;28;20048;-76
2022/02/03 12:43:27;;;;;;;28.42;13.75;;;7.00;96.20;;;;;;4974757;28;20034;-76
2022/02/03 12:45:53;;;;;;;29.55;14.85;;;7.10;96.30;;;;;;4991584;28;20048;-76
2022/02/03 12:48:27;;;;;;;26.98;13.25;;;7.10;96.30;;;;;;4990268;28;20093;-76
2022/02/03 12:50:54;;;;;;;31.63;13.23;;;7.10;96.20;;;;;;4990472;28;20430;-76
2022/02/03 12:53:21;;;;;;;24.77;13.38;;;7.10;96.20;;;;;;4990181;28;20120;-76
2022/02/03 12:55:51;;;;;;;22.08;12.02;;;7.10;95.90;;;;;;4987573;28;20077;-76
2022/02/03 12:58:22;;;;;;;20.45;10.65;;;7.10;95.70;;;;;;4989300;28;20030;-77
2022/02/03 13:01:02;;;;;;;21.83;12.57;;;7.10;95.50;;;;;;4980864;28;20050;-76
2022/02/03 13:03:34;;;;;;;19.30;11.47;;;7.20;95.60;;;;;;4987144;28;20084;-76
2022/02/03 13:06:03;;;;;;;24.25;11.77;;;7.10;95.30;;;;;;4999907;28;20391;-76
2022/02/03 13:08:48;;;;;;;21.25;12.52;;;7.20;95.20;;;;;;4980200;28;20050;-76
2022/02/03 13:11:19;;;;;;;22.10;12.13;;;7.20;95.00;;;;;;4985531;28;20034;-76
2022/02/03 13:13:58;;;;;;;20.80;11.30;;;7.20;94.90;;;;;;4980119;28;20137;-76
2022/02/03 13:16:24;;;;;;;17.13;10.85;;;7.10;95.00;;;;;;4981224;28;20050;-76
2022/02/03 13:25:14;;;;;;;20.07;10.37;;;7.20;94.80;;;;;;4977179;28;20030;-77
2022/02/03 13:27:59;;;;;;;18.25;10.98;;;7.20;94.60;;;;;;4983342;28;20069;-76
2022/02/03 13:33:06;;;;;;;18.33;9.63;;;7.20;94.30;;;;;;4983268;28;20023;-76
2022/02/03 13:38:33;;;;;;;14.90;9.10;;;7.10;93.90;;;;;;4983272;28;20026;-77
2022/02/03 13:41:18;;;;;;;16.73;9.05;;;7.10;93.90;;;;;;4980931;28;20038;-77
2022/02/03 13:43:45;;;;;;;17.08;8.43;;;7.10;93.80;;;;;;4980858;28;20117;-76
2022/02/03 13:46:23;;;;;;;14.93;7.63;;;7.10;93.60;;;;;;4980618;28;20034;-76
2022/02/03 13:48:51;;;;;;;15.75;8.45;;;7.00;93.50;;;;;;4980420;28;20030;-75
2022/02/03 13:51:17;;;;;;;16.88;7.75;;;7.00;93.60;;;;;;5002557;28;20042;-75
2022/02/03 13:53:50;;;;;;;16.55;8.32;;;7.00;93.60;;;;;;4988101;28;20023;-76
2022/02/03 14:16:12;;;;;;;13.15;8.27;;;6.90;94.00;;;;;;4992671;28;20050;-76
2022/02/03 14:28:58;;;;;;;13.43;8.30;;;7.00;93.80;;;;;;4990294;28;20073;-76
2022/02/03 14:31:23;;;;;;;14.00;8.15;;;6.90;93.90;;;;;;4989747;28;20054;-76
2022/02/03 14:33:49;;;;;;;13.57;8.30;;;6.90;93.90;;;;;;4992793;28;20477;-76
2022/02/03 14:36:18;;;;;;;15.93;8.43;;;6.90;94.00;;;;;;4994333;28;20118;-76
2022/02/03 14:41:24;;;;;;;15.18;8.73;;;7.00;94.00;;;;;;4991681;28;20026;-76
2022/02/03 14:43:51;;;;;;;15.27;9.38;;;6.90;94.00;;;;;;4992982;28;20037;-76
2022/02/03 14:46:17;;;;;;;15.60;7.90;;;7.00;93.90;;;;;;4986444;28;20036;-76
2022/02/03 14:48:44;;;;;;;14.40;8.68;;;7.00;93.90;;;;;;4990867;28;20034;-76
2022/02/03 14:51:14;;;;;;;11.98;7.93;;;7.00;94.00;;;;;;4991638;28;20029;-76
2022/02/03 14:58:59;;;;;;;14.05;8.57;;;6.90;94.00;;;;;;4984287;28;20449;-75
2022/02/03 15:01:25;;;;;;;16.38;8.02;;;6.90;94.10;;;;;;4982787;28;20061;-76
2022/02/03 15:03:54;;;;;;;13.07;8.20;;;6.80;94.10;;;;;;4986384;28;20030;-76
2022/02/03 15:06:23;;;;;;;13.70;8.77;;;6.80;94.10;;;;;;4985233;28;20027;-76
2022/02/03 15:09:13;;;;;;;11.32;8.00;;;6.90;94.10;;;;;;4981724;28;20478;-74
2022/02/03 15:14:17;;;;;;;13.52;8.88;;;6.90;94.10;;;;;;4982485;28;20026;-75
2022/02/03 15:16:43;;;;;;;11.73;8.02;;;6.90;94.10;;;;;;5004738;28;20027;-75
2022/02/03 15:19:08;;;;;;;13.98;8.68;;;6.90;94.10;;;;;;4980634;28;20105;-75
2022/02/03 15:21:34;;;;;;;15.68;8.30;;;6.80;94.10;;;;;;4983323;28;20031;-75
2022/02/03 15:24:01;;;;;;;15.68;9.80;;;6.80;94.30;;;;;;4981382;28;20033;-76
2022/02/03 15:26:27;;;;;;;16.23;9.32;;;6.80;94.50;;;;;;4984062;28;20413;-76
2022/02/03 15:28:54;;;;;;;13.38;8.55;;;6.70;94.80;;;;;;4981969;28;20031;-75
2022/02/03 15:31:21;;;;;;;19.35;10.10;;;6.70;95.00;;;;;;4987386;28;20470;-75
2022/02/03 15:33:55;;;;;;;18.05;9.40;;;6.60;95.20;;;;;;4983425;28;20018;-76
2022/02/03 15:36:20;;;;;;;15.88;9.60;;;6.60;95.50;;;;;;4983615;28;20153;-75
2022/02/03 15:38:48;;;;;;;14.30;9.30;;;6.50;95.60;;;;;;4984311;28;20093;-75
2022/02/03 15:41:22;;;;;;;16.92;10.30;;;6.50;95.70;;;;;;4984740;28;20463;-75
2022/02/03 15:43:50;;;;;;;16.20;9.95;;;6.50;95.80;;;;;;4979864;28;20050;-75
2022/02/03 15:46:17;;;;;;;17.10;10.57;;;6.50;95.90;;;;;;4983628;28;20023;-75
2022/02/03 15:48:55;;;;;;;15.45;9.98;;;6.50;96.00;;;;;;4983268;28;20026;-75
2022/02/03 16:17:46;;;;;;;22.25;12.07;;;6.40;96.50;;;;;;4985118;28;20033;-76
2022/02/03 16:20:20;;;;;;;22.55;10.98;;;6.30;96.60;;;;;;4983854;28;20026;-76
2022/02/03 16:50:29;;;;;;;22.92;13.02;;;6.30;96.80;;;;;;4981753;28;20030;-75
2022/02/03 16:52:57;;;;;;;23.10;12.77;;;6.20;96.80;;;;;;4986816;28;20039;-78
2022/02/03 16:55:25;;;;;;;22.75;13.57;;;6.20;96.90;;;;;;4985915;28;20022;-78
2022/02/03 16:57:53;;;;;;;23.42;12.60;;;6.20;96.90;;;;;;4985354;28;20034;-79
2022/02/03 17:00:19;;;;;;;22.10;13.13;;;6.20;96.90;;;;;;4984177;28;20109;-77
2022/02/03 17:02:45;;;;;;;20.17;12.48;;;6.20;97.00;;;;;;4980335;28;20086;-78
2022/02/03 17:05:14;;;;;;;22.80;13.52;;;6.20;97.00;;;;;;4993801;28;20045;-78
2022/02/03 17:07:40;;;;;;;21.30;13.10;;;6.20;97.10;;;;;;4995663;28;20459;-78
2022/02/03 17:10:06;;;;;;;26.08;13.65;;;6.20;97.10;;;;;;4986865;28;20108;-77
2022/02/03 17:12:32;;;;;;;24.60;14.32;;;6.20;97.10;;;;;;4983247;28;20073;-78
2022/02/03 17:14:57;;;;;;;24.13;13.25;;;6.20;97.10;;;;;;4979592;28;20054;-78
2022/02/03 17:17:25;;;;;;;20.60;12.77;;;6.20;97.10;;;;;;4992022;28;20026;-78
2022/02/03 17:19:51;;;;;;;22.77;12.88;;;6.20;97.10;;;;;;4984870;28;20777;-79
2022/02/03 17:22:27;;;;;;;21.38;12.25;;;6.20;97.10;;;;;;4981673;28;20054;-78
2022/02/03 17:25:08;;;;;;;22.17;12.60;;;6.20;97.10;;;;;;4987591;28;20125;-78
2022/02/03 17:27:48;;;;;;;22.40;13.80;;;6.20;97.10;;;;;;4986833;28;20038;-78
2022/02/03 17:30:38;;;;;;;27.50;14.10;;;6.20;97.10;;;;;;4977460;28;20449;-78
2022/02/03 18:08:38;;;;;;;23.02;13.88;;;6.10;97.00;;;;;;4986274;28;20467;-78
2022/02/03 18:32:46;;;;;;;23.23;14.20;;;6.10;96.80;;;;;;4994177;28;20019;-76
2022/02/03 18:49:49;;;;;;;27.08;15.30;;;6.00;96.80;;;;;;4991365;28;20042;-74
2022/02/03 18:56:27;;;;;;;31.80;16.42;;;6.10;96.70;;;;;;4992789;28;20026;-76
2022/02/03 19:01:38;;;;;;;25.85;16.08;;;6.10;96.60;;;;;;4982093;28;20026;-77
2022/02/03 19:15:19;;;;;;;30.23;16.10;;;6.00;96.60;;;;;;4988028;28;20046;-76
2022/02/03 19:56:42;;;;;;;26.40;16.60;;;6.00;96.60;;;;;;4991633;28;20128;-74
2022/02/03 19:57:40;;;;;;;36.38;18.40;;;6.00;96.50;;;;;;4982005;28;20118;-77
2022/02/03 20:00:30;;;;;;;29.90;18.70;;;6.00;96.50;;;;;;4992203;28;20045;-76
2022/02/03 20:04:55;;;;;;;29.98;18.20;;;6.00;96.50;;;;;;4986840;28;20027;-76
2022/02/03 20:07:45;;;;;;;30.05;17.55;;;6.00;96.50;;;;;;4986063;28;20450;-74
2022/02/03 20:10:19;;;;;;;30.63;18.33;;;5.90;96.50;;;;;;4977926;28;20113;-75
2022/02/03 20:12:45;;;;;;;34.78;18.73;;;5.90;96.50;;;;;;4988971;28;20037;-77
2022/02/03 20:15:11;;;;;;;31.38;16.33;;;5.90;96.50;;;;;;4988242;28;20054;-77
2022/02/03 20:17:36;;;;;;;33.10;19.40;;;5.90;96.60;;;;;;4991638;28;20026;-77
2022/02/03 20:20:03;;;;;;;32.25;19.35;;;6.00;96.50;;;;;;4982096;28;20034;-78
2022/02/03 20:22:33;;;;;;;28.00;17.83;;;5.90;96.60;;;;;;4983134;28;20037;-80
2022/02/03 20:24:58;;;;;;;29.23;19.52;;;6.00;96.60;;;;;;4984460;28;20185;-78
2022/02/03 20:27:24;;;;;;;32.97;19.05;;;5.90;96.60;;;;;;4984683;28;20082;-77
2022/02/03 20:29:50;;;;;;;35.83;19.77;;;5.90;96.60;;;;;;4977882;28;20030;-80
2022/02/03 20:32:17;;;;;;;32.60;20.50;;;5.90;96.70;;;;;;4990858;28;20033;-76
2022/02/03 20:34:43;;;;;;;35.47;20.10;;;5.90;96.60;;;;;;4976276;28;20411;-76
2022/02/03 20:37:09;;;;;;;37.83;20.13;;;5.90;96.60;;;;;;4985458;28;20038;-75
2022/02/03 20:39:34;;;;;;;34.33;20.55;;;5.90;96.60;;;;;;4981691;28;20037;-76
2022/02/03 20:42:00;;;;;;;35.72;20.35;;;5.90;96.60;;;;;;4976852;28;20131;-75
2022/02/03 20:44:25;;;;;;;33.35;19.98;;;5.90;96.60;;;;;;4980511;28;20137;-76
2022/02/03 20:46:51;;;;;;;37.38;21.13;;;5.90;96.70;;;;;;4979512;28;20097;-75
2022/02/03 20:49:16;;;;;;;31.52;19.88;;;5.80;96.70;;;;;;4975630;28;20147;-75
2022/02/03 20:51:43;;;;;;;34.63;20.95;;;5.80;96.70;;;;;;4975283;28;20039;-75
2022/02/03 20:54:09;;;;;;;35.03;19.67;;;5.80;96.80;;;;;;4981790;28;20093;-73
2022/02/03 20:56:36;;;;;;;34.13;20.35;;;5.80;96.80;;;;;;4984430;28;20082;-73
2022/02/03 20:59:05;;;;;;;38.35;21.65;;;5.80;96.90;;;;;;4984614;28;20041;-73
2022/02/03 21:01:34;;;;;;;35.17;21.13;;;5.80;96.90;;;;;;4984099;28;20103;-73
2022/02/03 21:04:09;;;;;;;32.88;20.55;;;5.80;96.90;;;;;;4985570;28;20401;-73
2022/02/03 21:06:34;;;;;;;37.15;20.58;;;5.80;96.90;;;;;;4988223;28;20049;-73
2022/02/03 21:09:00;;;;;;;39.15;21.40;;;5.80;96.90;;;;;;4983042;28;20225;-73
2022/02/03 21:11:25;;;;;;;39.20;21.55;;;5.80;96.90;;;;;;4980659;28;20449;-73
2022/02/03 21:13:54;;;;;;;38.60;22.67;;;5.80;96.90;;;;;;4985882;28;20030;-73
2022/02/03 21:16:20;;;;;;;39.15;21.92;;;5.80;97.00;;;;;;4986985;28;20528;-73
2022/02/03 21:18:46;;;;;;;39.95;22.33;;;5.80;96.90;;;;;;5000531;28;20038;-72
2022/02/03 21:21:12;;;;;;;33.88;20.83;;;5.80;97.00;;;;;;4991793;28;20018;-72
2022/02/03 21:23:39;;;;;;;38.85;21.38;;;5.80;97.00;;;;;;4991377;28;20216;-72
2022/02/03 21:26:15;;;;;;;38.75;21.98;;;5.80;97.00;;;;;;4983553;28;20498;-72
2022/02/03 21:28:46;;;;;;;38.10;21.60;;;5.80;97.00;;;;;;4989131;28;20489;-72
2022/02/03 21:31:11;;;;;;;35.70;21.33;;;5.80;97.00;;;;;;4988373;28;20041;-71
2022/02/03 21:33:46;;;;;;;36.28;22.08;;;5.80;97.00;;;;;;4977204;28;20039;-71
2022/02/03 21:36:14;;;;;;;39.88;22.88;;;5.80;97.00;;;;;;4987812;28;20038;-71
2022/02/03 21:38:41;;;;;;;37.88;22.73;;;5.80;97.00;;;;;;4987446;28;20043;-71
2022/02/03 21:41:08;;;;;;;36.67;22.77;;;5.80;97.00;;;;;;4984643;28;20018;-71
2022/02/03 21:43:34;;;;;;;38.50;22.15;;;5.70;96.90;;;;;;4989126;28;20046;-71
2022/02/03 21:46:00;;;;;;;41.17;24.60;;;5.80;97.00;;;;;;4991232;28;20450;-71
2022/02/03 21:48:26;;;;;;;38.17;22.60;;;5.80;96.90;;;;;;4982937;28;20035;-71
2022/02/03 21:50:53;;;;;;;38.38;22.70;;;5.80;96.90;;;;;;4975867;28;20026;-71
2022/02/03 21:53:22;;;;;;;38.58;22.60;;;5.80;96.90;;;;;;4986139;28;20034;-71
2022/02/03 21:55:49;;;;;;;37.70;21.75;;;5.80;96.90;;;;;;4983711;28;20551;-72
2022/02/03 21:58:16;;;;;;;42.08;23.00;;;5.80;96.90;;;;;;4988978;28;20029;-71
2022/02/03 22:00:44;;;;;;;38.00;23.05;;;5.80;96.90;;;;;;4986240;28;20094;-71
2022/02/03 22:03:09;;;;;;;36.95;22.20;;;5.80;96.90;;;;;;4982151;28;20034;-71
2022/02/03 22:05:36;;;;;;;43.67;23.25;;;5.80;96.90;;;;;;4985494;28;20073;-71
2022/02/03 22:08:03;;;;;;;42.80;23.95;;;5.80;96.90;;;;;;4985868;28;20035;-71
2022/02/03 22:10:29;;;;;;;37.25;22.58;;;5.80;96.90;;;;;;4986049;28;20034;-71
2022/02/03 22:12:55;;;;;;;39.60;23.08;;;5.80;96.90;;;;;;4977242;28;20034;-71
2022/02/03 22:15:20;;;;;;;37.05;22.83;;;5.80;96.90;;;;;;4979440;28;20052;-71
2022/02/03 22:17:47;;;;;;;40.40;23.40;;;5.80;96.90;;;;;;4985086;28;20030;-71
2022/02/03 22:20:40;;;;;;;37.42;23.77;;;5.80;96.90;;;;;;4977294;28;20034;-71
2022/02/03 22:28:34;;;;;;;43.15;22.70;;;5.70;96.90;;;;;;4979997;28;20054;-71
2022/02/03 22:39:39;;;;;;;37.55;21.38;;;5.70;96.90;;;;;;4992595;28;20088;-71
2022/02/03 22:47:24;;;;;;;45.33;23.58;;;5.80;96.80;;;;;;4980984;28;20035;-71
2022/02/03 22:49:49;;;;;;;43.40;24.40;;;5.80;96.80;;;;;;4979418;28;20034;-71
2022/02/03 22:52:18;;;;;;;41.90;22.95;;;5.80;96.80;;;;;;4984630;28;20093;-71
2022/02/03 22:54:43;;;;;;;38.13;22.60;;;5.80;96.80;;;;;;4989995;28;20101;-71
2022/02/03 22:57:09;;;;;;;46.33;24.67;;;5.80;96.80;;;;;;4987492;28;20042;-71
2022/02/03 23:00:10;;;;;;;39.72;23.88;;;5.80;96.70;;;;;;4990239;28;20113;-71
2022/02/03 23:02:36;;;;;;;45.00;23.85;;;5.80;96.70;;;;;;4994268;28;20417;-71
2022/02/03 23:05:02;;;;;;;41.70;23.58;;;5.80;96.70;;;;;;4991613;28;20456;-72
2022/02/03 23:07:38;;;;;;;41.17;21.75;;;5.80;96.70;;;;;;5001820;28;20030;-71
2022/02/03 23:10:19;;;;;;;40.70;22.83;;;5.80;96.70;;;;;;4992501;28;20121;-71
2022/02/03 23:18:01;;;;;;;41.22;22.63;;;5.70;96.70;;;;;;4993473;28;20046;-71
2022/02/03 23:20:41;;;;;;;43.10;23.23;;;5.70;96.70;;;;;;4994123;28;20038;-71
2022/02/03 23:23:06;;;;;;;42.35;23.83;;;5.70;96.70;;;;;;4990075;28;20015;-71
2022/02/03 23:25:32;;;;;;;41.33;22.65;;;5.70;96.60;;;;;;4991330;28;20022;-71